Terminal Aerodrome Forecast
Issued by NWS Blacksburg, VA

Home | Current Version | Previous Version | Text Only | Print | Product List | Glossary On
Versions: 1 2 3 4 5 6 7 8 9 10 11 12 13 14 15 16 17 18 19 20 21 22 23 24 25 26 27 28 29 30 31 32 33 34 35 36
000
FTUS41 KRNK 240520
TAFDAN
TAF
KDAN 240520Z 2406/2506 32005KT P6SM BKN040
      TEMPO 2406/2409 OVC030
     FM241200 31008KT P6SM SCT200
     FM241600 31013KT P6SM SCT250
     FM242300 29008KT P6SM FEW250
     FM250200 28004KT P6SM SKC=

USA.gov is the U.S. government's official web portal to all federal, state and local government web resources and services.